Time;durP1;ratioP1;P1;durP2;ratioP2;P2;SDS_P1;SDS_P2;PMS_P1;PMS_P2;Temp;Humidity;BMP_temperature;BMP_pressure;BME280_temperature;BME280_humidity;BME280_pressure;Samples;Min_cycle;Max_cycle;Signal;HPM_P1;HPM_P2
2023/01/06 00:02:19;;;;;;;25.92;6.88;;;10.50;99.90;;;;;;5015684;28;20253;-70
2023/01/06 00:04:47;;;;;;;20.60;5.82;;;10.50;99.90;;;;;;5032672;28;20029;-71
2023/01/06 00:07:20;;;;;;;22.02;5.72;;;10.50;99.90;;;;;;5029897;28;20054;-70
2023/01/06 00:09:46;;;;;;;27.48;7.28;;;10.50;99.90;;;;;;5014201;28;20528;-71
2023/01/06 00:12:19;;;;;;;22.17;5.82;;;10.60;99.90;;;;;;5013321;28;20073;-71
2023/01/06 00:14:46;;;;;;;20.33;5.85;;;10.60;99.90;;;;;;5030926;28;20191;-70
2023/01/06 00:17:19;;;;;;;23.65;6.47;;;10.60;99.90;;;;;;5033568;28;20520;-70
2023/01/06 00:19:44;;;;;;;17.25;5.40;;;10.60;99.90;;;;;;5031420;28;20033;-72
2023/01/06 00:22:17;;;;;;;12.85;5.57;;;10.60;99.90;;;;;;5006133;28;20087;-72
2023/01/06 00:24:43;;;;;;;13.60;5.18;;;10.60;99.90;;;;;;5013843;28;20148;-72
2023/01/06 00:27:16;;;;;;;12.82;5.13;;;10.60;99.90;;;;;;5013307;28;20112;-74
2023/01/06 00:29:42;;;;;;;13.23;5.97;;;10.70;99.90;;;;;;5030848;28;20462;-74
2023/01/06 00:32:14;;;;;;;11.32;5.15;;;10.70;99.90;;;;;;5013436;28;20076;-74
2023/01/06 00:34:40;;;;;;;14.40;4.47;;;10.70;99.90;;;;;;5030646;28;20490;-74
2023/01/06 00:37:12;;;;;;;15.13;4.75;;;10.70;99.90;;;;;;5032935;28;20037;-70
2023/01/06 00:39:38;;;;;;;10.38;4.00;;;10.70;99.90;;;;;;5014325;28;20041;-71
2023/01/06 00:42:17;;;;;;;10.82;4.35;;;10.60;99.90;;;;;;5032223;28;20493;-71
2023/01/06 00:44:43;;;;;;;13.30;4.07;;;10.60;99.90;;;;;;5014264;28;20045;-71
2023/01/06 00:47:17;;;;;;;18.48;4.20;;;10.60;99.90;;;;;;5032524;28;20041;-71
2023/01/06 00:49:42;;;;;;;13.23;3.90;;;10.60;99.90;;;;;;5032129;28;20048;-70
2023/01/06 00:52:16;;;;;;;8.30;4.38;;;10.60;99.90;;;;;;5015584;28;20057;-70
2023/01/06 00:54:55;;;;;;;11.82;3.95;;;10.50;99.90;;;;;;5045907;28;20055;-71
2023/01/06 00:57:28;;;;;;;14.73;4.57;;;10.50;99.90;;;;;;5052156;28;20044;-71
2023/01/06 00:59:53;;;;;;;12.40;4.97;;;10.50;99.90;;;;;;5034193;28;20053;-70
2023/01/06 01:02:33;;;;;;;14.40;4.57;;;10.50;99.90;;;;;;5033045;28;20041;-70
2023/01/06 01:04:59;;;;;;;10.73;4.90;;;10.50;99.90;;;;;;5017837;28;20041;-70
2023/01/06 01:07:31;;;;;;;12.40;5.47;;;10.50;99.90;;;;;;5017929;28;20044;-71
2023/01/06 01:09:56;;;;;;;11.90;4.80;;;10.50;99.90;;;;;;5049591;28;20119;-71
2023/01/06 01:12:29;;;;;;;15.50;5.45;;;10.50;99.90;;;;;;5034097;28;20132;-70
2023/01/06 01:14:54;;;;;;;13.50;5.40;;;10.50;99.90;;;;;;5052139;28;20049;-70
2023/01/06 01:17:34;;;;;;;17.25;6.82;;;10.40;99.90;;;;;;5017010;28;20127;-69
2023/01/06 01:19:59;;;;;;;16.90;5.68;;;10.50;99.90;;;;;;5051102;28;20048;-70
2023/01/06 01:22:34;;;;;;;7.97;4.60;;;10.50;99.90;;;;;;5033932;28;20042;-69
2023/01/06 01:25:00;;;;;;;12.52;6.45;;;10.40;99.90;;;;;;5033628;28;20040;-69
2023/01/06 01:27:32;;;;;;;15.02;5.55;;;10.40;99.90;;;;;;5033927;28;20067;-69
2023/01/06 01:29:57;;;;;;;12.80;7.22;;;10.50;99.90;;;;;;5016772;28;20131;-68
2023/01/06 01:32:30;;;;;;;11.30;6.30;;;10.50;99.90;;;;;;5051711;28;20127;-70
2023/01/06 01:34:55;;;;;;;13.27;5.95;;;10.50;99.90;;;;;;5033441;28;20183;-70
2023/01/06 01:37:29;;;;;;;13.85;6.25;;;10.50;99.90;;;;;;5050529;28;20115;-70
2023/01/06 01:40:03;;;;;;;14.23;5.90;;;10.50;99.90;;;;;;5033503;28;20049;-70
2023/01/06 01:42:35;;;;;;;16.67;6.88;;;10.50;99.90;;;;;;5017109;28;20037;-70
2023/01/06 01:45:06;;;;;;;12.65;5.60;;;10.40;99.90;;;;;;5050916;28;20041;-70
2023/01/06 01:47:49;;;;;;;10.07;5.50;;;10.40;99.90;;;;;;5051361;28;20037;-70
2023/01/06 01:50:14;;;;;;;10.68;5.50;;;10.40;99.90;;;;;;5033715;28;20140;-69
2023/01/06 01:52:49;;;;;;;10.52;5.90;;;10.40;99.90;;;;;;5028997;28;20508;-70
2023/01/06 01:55:29;;;;;;;14.32;6.05;;;10.40;99.90;;;;;;5031314;28;20488;-71
2023/01/06 01:58:13;;;;;;;9.75;5.30;;;10.40;99.90;;;;;;5012853;28;20057;-69
2023/01/06 02:00:41;;;;;;;12.02;4.70;;;10.40;99.90;;;;;;5013630;28;20124;-70
2023/01/06 02:03:21;;;;;;;11.98;4.05;;;10.40;99.90;;;;;;5013493;28;20042;-70
2023/01/06 02:05:51;;;;;;;11.48;4.82;;;10.40;99.90;;;;;;5030624;28;20116;-71
2023/01/06 02:08:37;;;;;;;8.85;4.15;;;10.40;99.90;;;;;;5013486;28;20040;-71
2023/01/06 02:11:04;;;;;;;11.98;3.60;;;10.40;99.90;;;;;;5026831;28;20140;-71
2023/01/06 02:13:40;;;;;;;9.50;3.80;;;10.30;99.90;;;;;;5029783;28;20034;-70
2023/01/06 02:16:34;;;;;;;12.05;3.72;;;10.30;99.90;;;;;;4997233;28;20063;-69
2023/01/06 02:19:30;;;;;;;6.43;3.20;;;10.40;99.90;;;;;;5007378;28;20057;-73
2023/01/06 02:21:58;;;;;;;8.35;3.25;;;10.40;99.90;;;;;;5002086;28;20046;-73
2023/01/06 02:25:09;;;;;;;7.30;3.30;;;10.40;99.90;;;;;;5013224;28;20104;-73
2023/01/06 02:28:10;;;;;;;7.38;3.25;;;10.40;99.90;;;;;;5030410;28;20137;-74
2023/01/06 02:31:13;;;;;;;7.07;3.10;;;10.40;99.90;;;;;;5007681;28;20394;-73
2023/01/06 02:33:48;;;;;;;7.70;3.40;;;10.40;99.90;;;;;;5012647;28;20116;-73
2023/01/06 02:36:26;;;;;;;6.57;2.92;;;10.40;99.90;;;;;;5030547;28;20081;-73
2023/01/06 02:39:20;;;;;;;7.55;3.20;;;10.40;99.90;;;;;;5030716;28;20033;-74
2023/01/06 02:42:06;;;;;;;11.88;3.50;;;10.40;99.90;;;;;;5012395;28;20072;-73
2023/01/06 02:44:50;;;;;;;9.23;3.22;;;10.40;99.90;;;;;;5028078;28;20091;-70
2023/01/06 02:47:42;;;;;;;6.53;3.42;;;10.40;99.90;;;;;;5029876;28;20034;-69
2023/01/06 02:50:27;;;;;;;6.63;3.72;;;10.40;99.90;;;;;;5029307;28;20132;-70
2023/01/06 02:53:16;;;;;;;11.73;4.40;;;10.40;99.90;;;;;;5010098;28;20069;-71
2023/01/06 02:55:56;;;;;;;8.45;3.97;;;10.40;99.90;;;;;;5043159;28;20052;-70
2023/01/06 02:58:35;;;;;;;8.32;4.15;;;10.40;99.90;;;;;;5032260;28;20060;-70
2023/01/06 03:01:10;;;;;;;9.70;5.32;;;10.40;99.90;;;;;;5032047;28;20054;-70
2023/01/06 03:03:47;;;;;;;11.57;4.32;;;10.40;99.90;;;;;;5028974;28;20034;-68
2023/01/06 03:06:16;;;;;;;6.85;4.50;;;10.40;99.90;;;;;;5045913;28;20119;-70
2023/01/06 03:08:53;;;;;;;8.00;4.80;;;10.40;99.90;;;;;;5049530;28;20045;-71
2023/01/06 03:11:20;;;;;;;9.13;4.95;;;10.40;99.90;;;;;;5030283;28;20060;-69
2023/01/06 03:14:19;;;;;;;9.57;4.80;;;10.40;99.90;;;;;;5050245;28;20041;-73
2023/01/06 03:16:44;;;;;;;5.50;3.58;;;10.40;99.90;;;;;;5004563;28;20136;-73
2023/01/06 03:19:17;;;;;;;10.00;5.65;;;10.40;99.90;;;;;;5012524;28;20125;-73
2023/01/06 03:21:44;;;;;;;6.82;4.93;;;10.40;99.90;;;;;;5042723;28;20047;-73
2023/01/06 03:24:19;;;;;;;9.52;5.40;;;10.40;99.90;;;;;;5049460;28;20396;-73
2023/01/06 03:26:46;;;;;;;11.60;6.40;;;10.40;99.90;;;;;;5050362;28;20399;-73
2023/01/06 03:29:26;;;;;;;11.50;6.63;;;10.40;99.90;;;;;;5033614;28;20045;-74
2023/01/06 03:32:05;;;;;;;;;;;10.40;99.90;;;;;;5053679;28;20048;-72
2023/01/06 03:35:00;;;;;;;7.85;6.25;;;10.40;99.90;;;;;;5037284;28;20435;-73
2023/01/06 03:37:42;;;;;;;9.95;7.10;;;10.40;99.90;;;;;;5036618;28;20045;-73
2023/01/06 03:40:18;;;;;;;10.65;6.53;;;10.40;99.90;;;;;;5055165;28;20591;-72
2023/01/06 03:43:11;;;;;;;11.38;6.10;;;10.40;99.90;;;;;;5036667;28;20098;-73
2023/01/06 03:46:22;;;;;;;9.70;5.65;;;10.30;99.90;;;;;;5052595;28;20033;-72
2023/01/06 03:49:14;;;;;;;7.85;5.15;;;10.30;99.90;;;;;;4991870;28;20042;-72
2023/01/06 03:51:57;;;;;;;8.73;5.22;;;10.30;99.90;;;;;;4967538;28;20054;-72
2023/01/06 03:54:49;;;;;;;11.00;6.00;;;10.30;99.90;;;;;;4941192;28;20142;-73
2023/01/06 03:57:38;;;;;;;9.10;4.63;;;10.40;99.90;;;;;;4971700;28;20134;-72
2023/01/06 04:00:23;;;;;;;6.75;3.83;;;10.40;99.90;;;;;;4972359;28;20124;-72
2023/01/06 04:02:56;;;;;;;7.38;4.50;;;10.30;99.90;;;;;;4956250;28;20046;-72
2023/01/06 04:05:25;;;;;;;6.25;3.80;;;10.40;99.90;;;;;;4971757;28;20057;-73
2023/01/06 04:07:58;;;;;;;9.07;4.05;;;10.40;99.90;;;;;;4956097;28;20094;-73
2023/01/06 04:10:23;;;;;;;7.35;3.50;;;10.40;99.90;;;;;;4955882;28;20059;-72
2023/01/06 04:12:57;;;;;;;5.45;2.83;;;10.40;99.90;;;;;;4955675;28;20041;-73
2023/01/06 04:15:28;;;;;;;4.13;2.70;;;10.40;99.90;;;;;;4971980;28;20074;-72
2023/01/06 04:18:00;;;;;;;9.05;3.33;;;10.40;99.90;;;;;;4971530;28;20042;-73
2023/01/06 04:20:28;;;;;;;4.93;3.13;;;10.40;99.90;;;;;;4971978;28;20134;-72
2023/01/06 04:23:07;;;;;;;4.90;2.60;;;10.40;99.90;;;;;;4984263;28;20048;-72
2023/01/06 04:25:32;;;;;;;4.28;2.17;;;10.40;99.90;;;;;;5032108;28;20083;-73
2023/01/06 04:28:05;;;;;;;4.65;2.80;;;10.40;99.90;;;;;;5015099;28;20072;-72
2023/01/06 04:30:30;;;;;;;4.97;2.38;;;10.40;99.90;;;;;;5015011;28;20052;-72
2023/01/06 04:33:03;;;;;;;6.07;2.20;;;10.40;99.90;;;;;;5014577;28;20038;-73
2023/01/06 04:35:28;;;;;;;4.18;2.70;;;10.50;99.90;;;;;;5031487;28;20041;-72
2023/01/06 04:38:01;;;;;;;5.30;2.83;;;10.50;99.90;;;;;;5032933;28;20044;-72
2023/01/06 04:40:27;;;;;;;4.70;2.38;;;10.40;99.90;;;;;;5030982;28;20465;-72
2023/01/06 04:43:03;;;;;;;4.28;1.88;;;10.40;99.90;;;;;;5014513;28;20042;-72
2023/01/06 04:45:28;;;;;;;4.97;2.30;;;10.40;99.90;;;;;;5031588;28;20048;-73
2023/01/06 04:48:01;;;;;;;3.63;2.20;;;10.40;99.90;;;;;;5032029;28;20124;-72
2023/01/06 04:50:26;;;;;;;5.35;2.60;;;10.50;99.90;;;;;;5031629;28;20045;-72
2023/01/06 04:52:59;;;;;;;7.45;2.53;;;10.40;99.90;;;;;;4992114;28;20134;-72
2023/01/06 04:55:39;;;;;;;7.90;2.22;;;10.50;99.90;;;;;;4994507;28;20084;-73
2023/01/06 04:58:12;;;;;;;5.75;2.38;;;10.40;99.90;;;;;;4995052;28;20568;-72
2023/01/06 05:00:37;;;;;;;3.10;2.30;;;10.40;99.90;;;;;;4990682;28;20386;-72
2023/01/06 05:03:10;;;;;;;4.13;2.00;;;10.40;99.90;;;;;;5014651;28;20048;-72
2023/01/06 05:05:37;;;;;;;6.88;2.70;;;10.50;99.90;;;;;;5014663;28;20390;-72
2023/01/06 05:08:10;;;;;;;7.70;2.80;;;10.50;99.90;;;;;;5031852;28;20041;-72
2023/01/06 05:10:35;;;;;;;7.63;2.90;;;10.40;99.90;;;;;;5014597;28;20052;-72
2023/01/06 05:13:08;;;;;;;6.05;3.17;;;10.40;99.90;;;;;;5014730;28;20037;-71
2023/01/06 05:15:40;;;;;;;5.32;2.10;;;10.40;99.90;;;;;;5031823;28;20421;-72
2023/01/06 05:18:13;;;;;;;7.93;2.85;;;10.30;99.90;;;;;;5014367;28;20080;-72
2023/01/06 05:20:38;;;;;;;8.32;3.67;;;10.30;99.90;;;;;;5014519;28;20041;-73
2023/01/06 05:23:11;;;;;;;8.63;3.78;;;10.30;99.90;;;;;;4997658;28;20400;-72
2023/01/06 05:25:36;;;;;;;6.30;3.80;;;10.30;99.90;;;;;;5032054;28;20049;-71
2023/01/06 05:28:09;;;;;;;6.45;3.80;;;10.30;99.90;;;;;;5031586;28;20041;-70
2023/01/06 05:30:34;;;;;;;8.25;3.83;;;10.30;99.90;;;;;;5031056;28;20120;-69
2023/01/06 05:33:07;;;;;;;8.20;3.42;;;10.30;99.90;;;;;;5014400;28;20116;-68
2023/01/06 05:35:32;;;;;;;6.50;4.30;;;10.30;99.90;;;;;;5031194;28;20076;-69
2023/01/06 05:38:05;;;;;;;5.68;3.65;;;10.30;99.90;;;;;;5031854;28;20134;-69
2023/01/06 05:40:31;;;;;;;6.85;4.00;;;10.30;99.90;;;;;;5013924;28;20132;-71
2023/01/06 05:43:04;;;;;;;6.38;3.88;;;10.30;99.90;;;;;;4997021;28;20045;-70
2023/01/06 05:45:29;;;;;;;8.27;4.40;;;10.30;99.90;;;;;;4997548;28;20478;-69
2023/01/06 05:48:02;;;;;;;6.82;4.30;;;10.30;99.90;;;;;;5031766;28;20103;-70
2023/01/06 05:50:27;;;;;;;8.00;4.38;;;10.20;99.90;;;;;;5013143;28;20037;-69
2023/01/06 05:53:00;;;;;;;8.32;4.28;;;10.20;99.90;;;;;;5010968;28;20080;-69
2023/01/06 05:55:39;;;;;;;6.28;4.00;;;10.20;99.90;;;;;;5011560;28;20080;-69
2023/01/06 05:58:12;;;;;;;5.30;4.10;;;10.10;99.90;;;;;;4993403;28;20113;-69
2023/01/06 06:00:44;;;;;;;9.30;4.55;;;10.10;99.90;;;;;;4994000;28;20077;-69
2023/01/06 06:03:17;;;;;;;6.55;4.45;;;10.00;99.90;;;;;;4993465;28;20420;-68
2023/01/06 06:05:42;;;;;;;8.10;4.32;;;10.00;99.90;;;;;;4994004;28;20046;-67
2023/01/06 06:08:15;;;;;;;5.70;4.55;;;10.00;99.90;;;;;;4994165;28;20507;-67
2023/01/06 06:10:40;;;;;;;11.27;4.72;;;9.90;99.90;;;;;;4992512;28;20104;-68
2023/01/06 06:13:13;;;;;;;8.80;4.93;;;9.90;99.90;;;;;;4993962;28;20033;-67
2023/01/06 06:15:38;;;;;;;8.18;4.38;;;9.90;99.90;;;;;;4993729;28;20049;-67
2023/01/06 06:18:11;;;;;;;9.02;4.57;;;9.90;99.90;;;;;;4993001;28;20042;-66
2023/01/06 06:20:36;;;;;;;12.38;5.25;;;9.90;99.90;;;;;;5011627;28;20048;-67
2023/01/06 06:23:09;;;;;;;6.90;5.75;;;9.90;99.90;;;;;;4977312;28;20037;-66
2023/01/06 06:25:34;;;;;;;8.52;4.82;;;9.90;99.90;;;;;;5010736;28;20052;-66
2023/01/06 06:28:07;;;;;;;13.70;5.13;;;9.90;99.90;;;;;;4993627;28;20041;-66
2023/01/06 06:30:32;;;;;;;9.05;5.40;;;9.90;99.90;;;;;;5011007;28;20050;-67
2023/01/06 06:33:05;;;;;;;8.05;5.35;;;9.90;99.90;;;;;;4992704;28;20044;-67
2023/01/06 06:35:30;;;;;;;7.75;5.38;;;9.90;99.90;;;;;;4993238;28;20562;-67
2023/01/06 06:38:03;;;;;;;8.15;5.10;;;9.90;99.90;;;;;;5010432;28;20117;-65
2023/01/06 06:40:28;;;;;;;9.15;5.78;;;9.80;99.90;;;;;;5010979;28;20463;-67
2023/01/06 06:43:01;;;;;;;11.98;5.78;;;9.90;99.90;;;;;;5010984;28;20065;-68
2023/01/06 06:45:26;;;;;;;12.38;5.60;;;9.90;99.90;;;;;;4992802;28;20177;-67
2023/01/06 06:48:02;;;;;;;8.00;5.85;;;9.80;99.90;;;;;;5009965;28;20526;-66
2023/01/06 06:50:27;;;;;;;7.07;5.00;;;9.80;99.90;;;;;;5011032;28;20042;-66
2023/01/06 06:53:01;;;;;;;9.13;4.90;;;9.80;99.90;;;;;;5012267;28;20129;-66
2023/01/06 06:55:40;;;;;;;9.82;4.10;;;9.80;99.90;;;;;;5010857;28;20045;-67
2023/01/06 06:58:13;;;;;;;7.30;4.95;;;9.90;99.90;;;;;;4993604;28;20096;-66
2023/01/06 07:00:38;;;;;;;5.63;4.70;;;9.90;99.90;;;;;;4992629;28;20085;-67
2023/01/06 07:03:11;;;;;;;6.00;4.70;;;9.90;99.90;;;;;;4993165;28;20512;-67
2023/01/06 07:05:37;;;;;;;7.45;5.25;;;9.90;99.90;;;;;;5010885;28;20033;-67
2023/01/06 07:08:10;;;;;;;5.53;4.50;;;9.90;99.90;;;;;;5016064;28;20934;-66
2023/01/06 07:10:35;;;;;;;8.07;4.82;;;10.00;99.90;;;;;;4999801;28;20108;-67
2023/01/06 07:13:08;;;;;;;7.38;4.85;;;10.00;99.90;;;;;;4982856;28;20038;-66
2023/01/06 07:15:33;;;;;;;10.88;4.88;;;10.00;99.90;;;;;;4999816;28;20088;-67
2023/01/06 07:18:10;;;;;;;7.88;5.07;;;10.00;99.90;;;;;;5016943;28;20426;-66
2023/01/06 07:20:36;;;;;;;6.18;4.57;;;10.00;99.90;;;;;;4999094;28;20394;-66
2023/01/06 07:23:10;;;;;;;4.95;3.42;;;10.00;99.90;;;;;;4999304;28;20052;-66
2023/01/06 07:25:35;;;;;;;7.40;4.72;;;10.00;99.90;;;;;;5017234;28;20038;-66
2023/01/06 07:28:08;;;;;;;8.77;5.00;;;10.10;99.90;;;;;;5015470;28;20037;-65
2023/01/06 07:30:35;;;;;;;9.23;4.35;;;10.10;99.90;;;;;;5015759;28;20038;-66
2023/01/06 07:33:08;;;;;;;7.38;4.40;;;10.10;99.90;;;;;;5015784;28;20133;-65
2023/01/06 07:35:34;;;;;;;13.95;4.65;;;10.00;99.90;;;;;;5016517;28;20046;-66
2023/01/06 07:38:11;;;;;;;7.53;3.92;;;10.00;99.90;;;;;;5016918;28;20049;-67
2023/01/06 07:40:36;;;;;;;6.05;3.55;;;10.00;99.90;;;;;;5016979;28;20487;-69
2023/01/06 07:43:18;;;;;;;10.88;4.15;;;9.90;99.90;;;;;;5016632;28;20100;-70
2023/01/06 07:45:46;;;;;;;11.43;3.50;;;9.80;99.90;;;;;;4999367;28;20042;-71
2023/01/06 07:48:26;;;;;;;6.63;2.58;;;9.70;99.90;;;;;;5016493;28;20037;-71
2023/01/06 07:50:51;;;;;;;8.15;2.72;;;9.70;99.90;;;;;;4999362;28;20042;-71
2023/01/06 07:53:24;;;;;;;6.03;1.70;;;9.60;99.90;;;;;;4998452;28;20051;-68
2023/01/06 07:56:04;;;;;;;11.65;2.15;;;9.50;99.90;;;;;;5016099;28;20517;-67
2023/01/06 07:58:37;;;;;;;7.82;2.28;;;9.40;99.90;;;;;;5017167;28;20042;-73
2023/01/06 08:01:07;;;;;;;9.90;1.73;;;9.30;99.90;;;;;;5017189;28;20120;-71
2023/01/06 08:03:40;;;;;;;12.52;2.95;;;9.20;99.90;;;;;;5016518;28;20112;-71
2023/01/06 08:06:09;;;;;;;7.53;1.85;;;9.10;99.90;;;;;;5002252;28;20057;-73
2023/01/06 08:08:42;;;;;;;8.90;2.95;;;9.00;99.90;;;;;;5019220;28;20053;-73
2023/01/06 08:11:11;;;;;;;10.10;1.67;;;8.90;99.90;;;;;;5036240;28;20374;-73
2023/01/06 08:13:43;;;;;;;7.57;1.77;;;8.80;99.90;;;;;;5018697;28;20045;-73
2023/01/06 08:16:10;;;;;;;7.15;2.35;;;8.80;99.90;;;;;;5035872;28;20045;-73
2023/01/06 08:18:44;;;;;;;9.60;4.18;;;8.70;99.90;;;;;;5016900;28;20045;-73
2023/01/06 08:21:10;;;;;;;6.45;1.73;;;8.60;99.90;;;;;;5015515;28;20099;-74
2023/01/06 08:23:44;;;;;;;4.38;1.20;;;8.60;99.90;;;;;;5015041;28;20077;-74
2023/01/06 08:26:12;;;;;;;8.68;2.95;;;8.60;99.90;;;;;;5033248;28;20042;-73
2023/01/06 08:28:46;;;;;;;36.40;16.23;;;8.60;99.90;;;;;;5033424;28;20383;-74
2023/01/06 08:31:18;;;;;;;8.40;2.33;;;8.70;99.90;;;;;;5032566;28;20048;-73
2023/01/06 08:33:52;;;;;;;7.55;2.92;;;8.70;99.90;;;;;;5033204;28;20037;-74
2023/01/06 08:36:19;;;;;;;7.82;2.42;;;8.90;99.90;;;;;;5015497;28;20052;-73
2023/01/06 08:38:58;;;;;;;6.75;2.10;;;9.10;99.90;;;;;;5032374;28;20521;-73
2023/01/06 08:41:23;;;;;;;8.90;2.00;;;9.30;99.90;;;;;;5015519;28;20088;-74
2023/01/06 08:43:56;;;;;;;7.68;3.05;;;9.70;99.90;;;;;;5016258;28;20045;-74
2023/01/06 08:46:21;;;;;;;8.05;2.00;;;10.00;99.90;;;;;;5014833;28;20449;-73
2023/01/06 08:48:53;;;;;;;9.27;1.80;;;10.10;99.90;;;;;;5015659;28;20076;-74
2023/01/06 08:51:22;;;;;;;8.23;1.80;;;10.30;99.90;;;;;;5014544;28;20052;-74
2023/01/06 08:53:54;;;;;;;4.00;1.27;;;10.50;99.90;;;;;;5032842;28;20072;-74
2023/01/06 08:56:26;;;;;;;10.13;2.30;;;10.70;99.90;;;;;;5015237;28;20059;-74
2023/01/06 08:59:04;;;;;;;7.32;1.88;;;11.10;99.90;;;;;;5014847;28;20577;-75
2023/01/06 09:01:35;;;;;;;7.53;1.50;;;11.40;99.90;;;;;;5016019;28;20037;-73
2023/01/06 09:04:10;;;;;;;6.85;2.03;;;11.70;99.90;;;;;;5032627;28;20045;-73
2023/01/06 09:06:37;;;;;;;7.22;1.35;;;12.00;99.90;;;;;;5014263;28;20034;-73
2023/01/06 09:09:11;;;;;;;10.93;1.80;;;12.30;99.90;;;;;;5028050;28;20037;-72
2023/01/06 09:11:41;;;;;;;6.40;1.35;;;12.60;99.90;;;;;;5021879;28;20430;-72
2023/01/06 09:14:15;;;;;;;8.52;1.17;;;12.90;99.90;;;;;;5031890;28;20045;-72
2023/01/06 09:16:40;;;;;;;6.32;1.55;;;13.20;99.90;;;;;;5014160;28;20037;-72
2023/01/06 09:19:13;;;;;;;7.78;1.60;;;13.30;99.90;;;;;;5014163;28;20042;-72
2023/01/06 09:21:41;;;;;;;6.15;1.42;;;13.50;99.90;;;;;;5027438;28;20577;-72
2023/01/06 09:24:18;;;;;;;10.63;1.63;;;13.90;99.90;;;;;;5031841;28;20069;-72
2023/01/06 09:26:43;;;;;;;10.35;1.65;;;14.30;99.90;;;;;;5013872;28;20136;-72
2023/01/06 09:29:23;;;;;;;7.65;1.38;;;14.70;99.90;;;;;;5031366;28;20091;-72
2023/01/06 09:31:48;;;;;;;5.65;1.05;;;15.00;99.90;;;;;;5031563;28;20037;-72
2023/01/06 09:34:21;;;;;;;11.30;1.83;;;15.10;99.90;;;;;;5031303;28;20095;-72
2023/01/06 09:36:46;;;;;;;8.90;1.48;;;15.20;99.90;;;;;;5014266;28;20041;-72
2023/01/06 09:39:19;;;;;;;6.47;1.33;;;15.30;99.90;;;;;;5030507;28;20048;-72
2023/01/06 09:42:23;;;;;;;13.25;2.60;;;15.50;99.90;;;;;;5031144;28;20084;-72
2023/01/06 09:44:56;;;;;;;9.82;1.45;;;15.40;99.90;;;;;;5031666;28;20045;-73
2023/01/06 09:47:47;;;;;;;10.50;1.80;;;15.70;99.90;;;;;;5013439;28;20049;-72
2023/01/06 09:50:16;;;;;;;8.23;1.23;;;15.70;99.90;;;;;;5013940;28;20513;-71
2023/01/06 09:52:54;;;;;;;8.70;1.17;;;15.90;99.90;;;;;;4996166;28;20351;-71
2023/01/06 09:55:43;;;;;;;10.13;1.70;;;16.10;99.90;;;;;;5011051;28;20067;-71
2023/01/06 09:58:20;;;;;;;6.60;1.33;;;16.30;99.90;;;;;;5051049;28;20036;-71
2023/01/06 10:00:50;;;;;;;8.85;1.45;;;16.20;99.90;;;;;;5045099;28;20044;-71
2023/01/06 10:03:31;;;;;;;6.73;1.27;;;16.10;99.90;;;;;;5033158;28;20049;-71
2023/01/06 10:06:10;;;;;;;7.97;1.42;;;16.10;99.90;;;;;;5049596;28;20529;-71
2023/01/06 10:09:07;;;;;;;5.45;1.45;;;16.20;99.90;;;;;;5050347;28;20461;-73
2023/01/06 10:11:41;;;;;;;4.72;1.23;;;16.40;99.90;;;;;;5016100;28;20047;-72
2023/01/06 10:14:32;;;;;;;10.55;1.38;;;16.20;99.90;;;;;;5020055;28;20049;-71
2023/01/06 10:17:31;;;;;;;9.35;2.25;;;16.20;99.90;;;;;;5039302;28;20499;-71
2023/01/06 10:20:15;;;;;;;5.32;1.00;;;15.90;99.90;;;;;;5016042;28;20090;-71
2023/01/06 10:23:20;;;;;;;6.03;1.73;;;15.80;99.90;;;;;;5022080;28;20054;-72
2023/01/06 10:25:51;;;;;;;10.57;1.50;;;15.90;99.90;;;;;;5008376;28;20485;-72
2023/01/06 10:28:34;;;;;;;4.45;1.20;;;16.10;99.90;;;;;;5039569;28;20044;-72
2023/01/06 10:31:08;;;;;;;9.57;1.50;;;16.10;99.90;;;;;;5028238;28;20064;-72
2023/01/06 10:33:47;;;;;;;7.72;1.65;;;16.30;99.90;;;;;;5028476;28;20117;-72
2023/01/06 10:36:16;;;;;;;7.57;1.55;;;16.30;99.90;;;;;;5031707;28;20033;-71
2023/01/06 10:38:56;;;;;;;7.55;1.92;;;16.50;99.90;;;;;;5031110;28;20045;-71
2023/01/06 10:44:50;;;;;;;8.50;1.77;;;17.10;99.90;;;;;;5047865;28;20588;-71
2023/01/06 10:47:32;;;;;;;7.20;1.30;;;17.40;99.90;;;;;;5031511;28;20119;-72
2023/01/06 10:49:59;;;;;;;9.05;1.27;;;17.50;99.90;;;;;;5022494;28;20437;-72
2023/01/06 10:52:32;;;;;;;7.47;1.48;;;17.70;99.90;;;;;;5010941;28;20056;-72
2023/01/06 10:55:04;;;;;;;5.75;1.05;;;18.00;99.90;;;;;;5040194;28;20118;-72
2023/01/06 10:57:45;;;;;;;7.85;1.50;;;18.10;99.90;;;;;;5015206;28;20079;-71
2023/01/06 11:00:14;;;;;;;11.68;3.55;;;18.30;99.90;;;;;;5048618;28;20129;-72
2023/01/06 11:02:53;;;;;;;6.80;1.73;;;18.20;99.90;;;;;;5032220;28;20041;-72
2023/01/06 11:05:27;;;;;;;7.82;1.85;;;18.20;99.90;;;;;;5031598;28;20049;-72
2023/01/06 11:08:19;;;;;;;6.90;1.30;;;17.80;99.90;;;;;;5046796;28;20121;-71
2023/01/06 11:10:53;;;;;;;6.78;1.80;;;17.50;99.90;;;;;;5030000;28;20041;-71
2023/01/06 11:13:46;;;;;;;7.18;1.73;;;17.00;99.90;;;;;;5046953;28;20043;-70
2023/01/06 11:16:29;;;;;;;7.97;1.42;;;16.60;99.90;;;;;;5047585;28;20565;-71
2023/01/06 11:19:26;;;;;;;9.40;1.58;;;16.20;99.90;;;;;;5011567;28;20107;-71
2023/01/06 11:21:52;;;;;;;6.80;1.58;;;16.10;99.90;;;;;;5048549;28;20178;-69
2023/01/06 11:24:25;;;;;;;6.18;1.65;;;15.70;99.90;;;;;;5030808;28;20131;-71
2023/01/06 11:27:04;;;;;;;7.68;1.63;;;15.00;99.90;;;;;;5046452;28;20041;-70
2023/01/06 11:29:32;;;;;;;10.95;1.80;;;14.60;99.90;;;;;;5048030;28;20497;-70
2023/01/06 11:32:18;;;;;;;9.93;1.98;;;14.60;99.90;;;;;;5041227;28;20045;-71
2023/01/06 11:35:03;;;;;;;7.07;1.67;;;14.20;99.90;;;;;;5044877;28;20037;-70
2023/01/06 11:37:39;;;;;;;9.43;1.67;;;13.90;99.90;;;;;;5030459;28;20491;-72
2023/01/06 11:40:27;;;;;;;7.68;1.92;;;13.80;99.90;;;;;;5038311;28;20175;-72
2023/01/06 11:43:08;;;;;;;6.03;1.73;;;13.60;99.90;;;;;;5023716;28;20045;-72
2023/01/06 11:45:44;;;;;;;11.55;1.92;;;13.60;99.90;;;;;;5030524;28;20153;-71
2023/01/06 11:48:28;;;;;;;6.50;1.55;;;13.60;99.90;;;;;;5030003;28;20049;-72
2023/01/06 11:51:01;;;;;;;6.85;1.80;;;13.70;99.90;;;;;;5029218;28;20760;-71
2023/01/06 11:53:33;;;;;;;11.70;2.33;;;13.70;99.90;;;;;;5049154;28;20067;-70
2023/01/06 11:56:13;;;;;;;9.63;2.28;;;13.70;99.90;;;;;;5050201;28;20041;-69
2023/01/06 11:59:15;;;;;;;8.15;1.60;;;13.60;99.90;;;;;;5051986;28;20119;-69
2023/01/06 12:02:05;;;;;;;14.20;2.53;;;13.50;99.90;;;;;;5033806;28;20045;-69
2023/01/06 12:04:50;;;;;;;6.75;2.15;;;13.10;99.90;;;;;;5035487;28;20416;-68
2023/01/06 12:07:51;;;;;;;9.02;1.55;;;12.70;99.90;;;;;;5017453;28;20045;-71
2023/01/06 12:10:29;;;;;;;11.48;2.20;;;12.40;99.90;;;;;;5026419;28;20045;-69
2023/01/06 12:13:01;;;;;;;7.53;1.95;;;12.10;99.90;;;;;;5035287;28;20037;-68
2023/01/06 12:15:30;;;;;;;12.32;1.83;;;11.80;99.90;;;;;;5034785;28;20053;-69
2023/01/06 12:18:15;;;;;;;8.23;1.65;;;11.60;99.90;;;;;;5053239;28;20120;-71
2023/01/06 12:20:46;;;;;;;8.30;1.75;;;11.40;99.90;;;;;;5051527;28;20041;-71
2023/01/06 12:23:20;;;;;;;;;;;11.30;99.90;;;;;;5034469;28;20072;-71
2023/01/06 12:25:59;;;;;;;11.30;2.15;;;11.10;99.90;;;;;;5034677;28;19966;-71
2023/01/06 12:28:36;;;;;;;6.07;1.55;;;11.00;99.90;;;;;;5034759;28;20115;-71
2023/01/06 12:31:17;;;;;;;11.13;1.60;;;10.90;99.90;;;;;;5032582;28;20401;-71
2023/01/06 12:34:19;;;;;;;8.63;1.67;;;10.80;99.90;;;;;;5033243;28;20033;-72
2023/01/06 12:36:57;;;;;;;6.32;1.92;;;10.90;99.90;;;;;;5012688;28;20041;-72
2023/01/06 12:39:44;;;;;;;12.48;2.30;;;10.90;99.90;;;;;;5052599;28;20044;-72
2023/01/06 12:42:40;;;;;;;7.50;1.77;;;11.00;99.90;;;;;;5050742;28;20045;-72
2023/01/06 12:45:18;;;;;;;9.50;2.13;;;11.00;99.90;;;;;;5032641;28;20052;-72
2023/01/06 12:47:53;;;;;;;13.00;2.63;;;11.00;99.90;;;;;;5017955;28;20045;-71
2023/01/06 12:50:24;;;;;;;12.63;2.75;;;10.90;99.90;;;;;;5051526;28;20045;-71
2023/01/06 12:53:05;;;;;;;16.63;2.28;;;10.80;99.90;;;;;;5045936;28;20396;-72
2023/01/06 12:55:45;;;;;;;8.90;1.50;;;10.80;99.90;;;;;;5026731;28;20056;-69
2023/01/06 12:58:29;;;;;;;9.35;1.85;;;10.70;99.90;;;;;;5050070;28;20481;-69
2023/01/06 13:01:08;;;;;;;7.53;2.20;;;10.70;99.90;;;;;;4998160;28;20049;-69
2023/01/06 13:04:11;;;;;;;9.48;1.52;;;10.70;99.90;;;;;;4997227;28;20073;-69
2023/01/06 13:07:21;;;;;;;7.43;1.40;;;10.70;99.90;;;;;;5043874;28;20098;-69
2023/01/06 13:09:59;;;;;;;6.50;1.80;;;10.60;99.90;;;;;;5033809;28;20123;-69
2023/01/06 13:12:57;;;;;;;7.35;1.23;;;10.60;99.90;;;;;;5050709;28;20051;-68
2023/01/06 13:15:27;;;;;;;10.10;2.15;;;10.50;99.90;;;;;;5032657;28;20521;-72
2023/01/06 13:18:21;;;;;;;10.20;2.22;;;10.50;99.90;;;;;;5050797;28;20041;-72
2023/01/06 13:21:09;;;;;;;10.75;1.83;;;10.40;99.90;;;;;;5034090;28;20190;-69
2023/01/06 13:24:09;;;;;;;4.93;1.20;;;10.40;99.90;;;;;;5051643;28;20394;-69
2023/01/06 13:26:47;;;;;;;10.65;2.00;;;10.30;99.90;;;;;;5022229;28;20049;-69
2023/01/06 13:29:44;;;;;;;11.68;2.28;;;10.30;99.90;;;;;;5030774;28;20176;-69
2023/01/06 13:32:41;;;;;;;9.52;1.52;;;10.20;99.90;;;;;;5049699;28;20064;-69